sensor_id;sensor_type;location;lat;lon;timestamp;pressure;altitude;pressure_sealevel;temperature;humidity
24825;BME280;12910;57.690;11.974;2023-02-28T00:00:15;102274.97;;;2.01;100.00
24825;BME280;12910;57.690;11.974;2023-02-28T00:02:42;102280.28;;;2.04;100.00
24825;BME280;12910;57.690;11.974;2023-02-28T00:05:09;102283.81;;;2.06;100.00
24825;BME280;12910;57.690;11.974;2023-02-28T00:07:35;102276.50;;;1.99;100.00
24825;BME280;12910;57.690;11.974;2023-02-28T00:10:01;102274.50;;;1.95;100.00
24825;BME280;12910;57.690;11.974;2023-02-28T00:12:27;102269.19;;;1.92;100.00
24825;BME280;12910;57.690;11.974;2023-02-28T00:14:53;102261.91;;;1.84;100.00
24825;BME280;12910;57.690;11.974;2023-02-28T00:17:18;102265.09;;;1.82;100.00
24825;BME280;12910;57.690;11.974;2023-02-28T00:19:49;102266.47;;;1.78;100.00
24825;BME280;12910;57.690;11.974;2023-02-28T00:22:19;102266.47;;;1.78;100.00
24825;BME280;12910;57.690;11.974;2023-02-28T00:24:45;102261.41;;;1.78;100.00
24825;BME280;12910;57.690;11.974;2023-02-28T00:27:11;102267.38;;;1.79;100.00
24825;BME280;12910;57.690;11.974;2023-02-28T00:29:37;102276.47;;;1.77;100.00
24825;BME280;12910;57.690;11.974;2023-02-28T00:32:03;102259.06;;;1.69;100.00
24825;BME280;12910;57.690;11.974;2023-02-28T00:34:28;102275.59;;;1.76;100.00
24825;BME280;12910;57.690;11.974;2023-02-28T00:36:54;102267.75;;;1.73;100.00
24825;BME280;12910;57.690;11.974;2023-02-28T00:39:19;102267.28;;;1.67;100.00
24825;BME280;12910;57.690;11.974;2023-02-28T00:41:44;102256.19;;;1.54;100.00
24825;BME280;12910;57.690;11.974;2023-02-28T00:44:10;102268.34;;;1.59;100.00
24825;BME280;12910;57.690;11.974;2023-02-28T00:46:36;102274.25;;;1.59;100.00
24825;BME280;12910;57.690;11.974;2023-02-28T00:49:01;102264.78;;;1.57;100.00
24825;BME280;12910;57.690;11.974;2023-02-28T00:51:26;102254.69;;;1.57;100.00
24825;BME280;12910;57.690;11.974;2023-02-28T00:53:52;102257.72;;;1.52;100.00
24825;BME280;12910;57.690;11.974;2023-02-28T00:56:17;102260.50;;;1.55;100.00
24825;BME280;12910;57.690;11.974;2023-02-28T00:58:42;102266.31;;;1.54;100.00
24825;BME280;12910;57.690;11.974;2023-02-28T01:01:08;102268.94;;;1.56;100.00
24825;BME280;12910;57.690;11.974;2023-02-28T01:03:33;102269.84;;;1.57;100.00
24825;BME280;12910;57.690;11.974;2023-02-28T01:05:58;102261.50;;;1.58;100.00
24825;BME280;12910;57.690;11.974;2023-02-28T01:08:24;102255.81;;;1.50;100.00
24825;BME280;12910;57.690;11.974;2023-02-28T01:10:51;102259.38;;;1.52;100.00
24825;BME280;12910;57.690;11.974;2023-02-28T01:13:16;102250.88;;;1.51;100.00
24825;BME280;12910;57.690;11.974;2023-02-28T01:15:46;102261.25;;;1.54;100.00
24825;BME280;12910;57.690;11.974;2023-02-28T01:18:14;102263.28;;;1.59;100.00
24825;BME280;12910;57.690;11.974;2023-02-28T01:20:39;102258.97;;;1.58;100.00
24825;BME280;12910;57.690;11.974;2023-02-28T01:23:05;102251.50;;;1.59;100.00
24825;BME280;12910;57.690;11.974;2023-02-28T01:25:30;102248.34;;;1.62;100.00
24825;BME280;12910;57.690;11.974;2023-02-28T01:27:56;102248.34;;;1.62;100.00
24825;BME280;12910;57.690;11.974;2023-02-28T01:30:21;102250.34;;;1.66;100.00
24825;BME280;12910;57.690;11.974;2023-02-28T01:32:47;102244.41;;;1.65;100.00
24825;BME280;12910;57.690;11.974;2023-02-28T01:35:12;102245.94;;;1.63;100.00
24825;BME280;12910;57.690;11.974;2023-02-28T01:37:37;102239.22;;;1.64;100.00
24825;BME280;12910;57.690;11.974;2023-02-28T01:40:03;102247.09;;;1.57;100.00
24825;BME280;12910;57.690;11.974;2023-02-28T01:42:29;102239.00;;;1.50;100.00
24825;BME280;12910;57.690;11.974;2023-02-28T01:45:24;102228.91;;;1.50;100.00
24825;BME280;12910;57.690;11.974;2023-02-28T01:47:52;102230.56;;;1.50;100.00
24825;BME280;12910;57.690;11.974;2023-02-28T01:50:22;102231.97;;;1.46;100.00
24825;BME280;12910;57.690;11.974;2023-02-28T01:52:50;102231.97;;;1.46;100.00
24825;BME280;12910;57.690;11.974;2023-02-28T01:55:19;102230.97;;;1.44;100.00
24825;BME280;12910;57.690;11.974;2023-02-28T01:57:51;102227.13;;;1.49;100.00
24825;BME280;12910;57.690;11.974;2023-02-28T02:00:22;102220.19;;;1.47;100.00
24825;BME280;12910;57.690;11.974;2023-02-28T02:02:51;102219.81;;;1.52;100.00
24825;BME280;12910;57.690;11.974;2023-02-28T02:05:22;102215.75;;;1.54;100.00
24825;BME280;12910;57.690;11.974;2023-02-28T02:07:51;102203.88;;;1.53;100.00
24825;BME280;12910;57.690;11.974;2023-02-28T02:10:21;102222.84;;;1.59;100.00
24825;BME280;12910;57.690;11.974;2023-02-28T02:13:08;102211.19;;;1.61;100.00
24825;BME280;12910;57.690;11.974;2023-02-28T02:18:19;102210.78;;;1.66;100.00
24825;BME280;12910;57.690;11.974;2023-02-28T02:35:34;102196.50;;;1.34;100.00
24825;BME280;12910;57.690;11.974;2023-02-28T02:40:19;102182.16;;;1.23;100.00
24825;BME280;12910;57.690;11.974;2023-02-28T02:42:56;102198.03;;;1.32;100.00
24825;BME280;12910;57.690;11.974;2023-02-28T02:45:34;102195.63;;;1.34;100.00
24825;BME280;12910;57.690;11.974;2023-02-28T02:48:04;102191.31;;;1.33;100.00
24825;BME280;12910;57.690;11.974;2023-02-28T02:50:38;102182.50;;;1.28;100.00
24825;BME280;12910;57.690;11.974;2023-02-28T02:53:06;102188.31;;;1.27;100.00
24825;BME280;12910;57.690;11.974;2023-02-28T02:55:35;102185.16;;;1.29;100.00
24825;BME280;12910;57.690;11.974;2023-02-28T02:58:05;102190.81;;;1.37;100.00
24825;BME280;12910;57.690;11.974;2023-02-28T03:00:46;102182.47;;;1.38;100.00
24825;BME280;12910;57.690;11.974;2023-02-28T03:03:15;102183.97;;;1.46;100.00
24825;BME280;12910;57.690;11.974;2023-02-28T03:05:49;102185.84;;;1.49;100.00
24825;BME280;12910;57.690;11.974;2023-02-28T03:08:15;102189.59;;;1.54;100.00
24825;BME280;12910;57.690;11.974;2023-02-28T03:10:46;102192.00;;;1.52;100.00
24825;BME280;12910;57.690;11.974;2023-02-28T03:13:42;102191.75;;;1.49;100.00
24825;BME280;12910;57.690;11.974;2023-02-28T03:24:13;102194.16;;;1.15;100.00
24825;BME280;12910;57.690;11.974;2023-02-28T03:26:42;102207.16;;;1.20;100.00
24825;BME280;12910;57.690;11.974;2023-02-28T03:29:21;102202.19;;;1.21;100.00
24825;BME280;12910;57.690;11.974;2023-02-28T03:31:56;102195.66;;;1.13;100.00
24825;BME280;12910;57.690;11.974;2023-02-28T03:34:31;102200.72;;;1.13;100.00
24825;BME280;12910;57.690;11.974;2023-02-28T03:37:14;102198.94;;;1.12;100.00
24825;BME280;12910;57.690;11.974;2023-02-28T03:39:44;102197.19;;;1.11;100.00
24825;BME280;12910;57.690;11.974;2023-02-28T03:42:21;102189.88;;;1.04;100.00
24825;BME280;12910;57.690;11.974;2023-02-28T03:45:00;102185.97;;;0.97;100.00
24825;BME280;12910;57.690;11.974;2023-02-28T03:48:01;102194.56;;;0.99;100.00
24825;BME280;12910;57.690;11.974;2023-02-28T03:50:29;102183.59;;;0.88;100.00
24825;BME280;12910;57.690;11.974;2023-02-28T03:53:34;102185.38;;;0.89;100.00
24825;BME280;12910;57.690;11.974;2023-02-28T03:56:16;102185.59;;;0.92;100.00
24825;BME280;12910;57.690;11.974;2023-02-28T03:59:18;102196.97;;;0.98;100.00
24825;BME280;12910;57.690;11.974;2023-02-28T04:01:47;102198.38;;;0.94;100.00
24825;BME280;12910;57.690;11.974;2023-02-28T04:04:14;102205.56;;;0.89;100.00
24825;BME280;12910;57.690;11.974;2023-02-28T04:06:41;102214.38;;;0.84;100.00
24825;BME280;12910;57.690;11.974;2023-02-28T04:09:08;102203.53;;;0.75;100.00
24825;BME280;12910;57.690;11.974;2023-02-28T04:11:37;102206.06;;;0.65;100.00
24825;BME280;12910;57.690;11.974;2023-02-28T04:14:04;102200.91;;;0.63;100.00
24825;BME280;12910;57.690;11.974;2023-02-28T04:16:32;102202.78;;;0.55;100.00
24825;BME280;12910;57.690;11.974;2023-02-28T04:18:57;102207.59;;;0.52;100.00
24825;BME280;12910;57.690;11.974;2023-02-28T04:21:29;102201.16;;;0.45;100.00
24825;BME280;12910;57.690;11.974;2023-02-28T04:23:55;102200.78;;;0.51;100.00
24825;BME280;12910;57.690;11.974;2023-02-28T04:26:21;102194.19;;;0.53;100.00
24825;BME280;12910;57.690;11.974;2023-02-28T04:28:46;102199.78;;;0.59;100.00
24825;BME280;12910;57.690;11.974;2023-02-28T04:31:11;102191.44;;;0.60;100.00
24825;BME280;12910;57.690;11.974;2023-02-28T04:33:36;102198.66;;;0.66;100.00
24825;BME280;12910;57.690;11.974;2023-02-28T04:36:05;102199.03;;;0.71;100.00
24825;BME280;12910;57.690;11.974;2023-02-28T04:38:36;102195.97;;;0.75;100.00
24825;BME280;12910;57.690;11.974;2023-02-28T04:41:02;102192.44;;;0.73;100.00
24825;BME280;12910;57.690;11.974;2023-02-28T04:43:28;102203.81;;;0.68;100.00
24825;BME280;12910;57.690;11.974;2023-02-28T04:45:54;102200.41;;;0.67;100.00
24825;BME280;12910;57.690;11.974;2023-02-28T04:48:24;102204.06;;;0.71;100.00
24825;BME280;12910;57.690;11.974;2023-02-28T04:50:50;102197.63;;;0.64;100.00
24825;BME280;12910;57.690;11.974;2023-02-28T04:53:16;102191.19;;;0.57;100.00
24825;BME280;12910;57.690;11.974;2023-02-28T04:55:42;102183.25;;;0.53;100.00
24825;BME280;12910;57.690;11.974;2023-02-28T04:58:07;102190.81;;;0.63;100.00
24825;BME280;12910;57.690;11.974;2023-02-28T05:00:32;102192.22;;;0.59;100.00
24825;BME280;12910;57.690;11.974;2023-02-28T05:02:58;102185.75;;;0.53;100.00
24825;BME280;12910;57.690;11.974;2023-02-28T05:05:23;102191.31;;;0.59;100.00
24825;BME280;12910;57.690;11.974;2023-02-28T05:07:48;102188.66;;;0.57;100.00
24825;BME280;12910;57.690;11.974;2023-02-28T05:10:14;102193.06;;;0.50;100.00
24825;BME280;12910;57.690;11.974;2023-02-28T05:12:39;102186.13;;;0.47;100.00
24825;BME280;12910;57.690;11.974;2023-02-28T05:15:05;102194.84;;;0.51;100.00
24825;BME280;12910;57.690;11.974;2023-02-28T05:17:31;102188.41;;;0.54;100.00
24825;BME280;12910;57.690;11.974;2023-02-28T05:19:56;102198.88;;;0.59;100.00
24825;BME280;12910;57.690;11.974;2023-02-28T05:22:21;102185.00;;;0.54;100.00
24825;BME280;12910;57.690;11.974;2023-02-28T05:24:47;102184.75;;;0.51;100.00
24825;BME280;12910;57.690;11.974;2023-02-28T05:27:12;102187.41;;;0.52;100.00
24825;BME280;12910;57.690;11.974;2023-02-28T05:29:38;102187.91;;;0.48;100.00
24825;BME280;12910;57.690;11.974;2023-02-28T05:32:11;102195.75;;;0.51;100.00
24825;BME280;12910;57.690;11.974;2023-02-28T05:34:38;102185.66;;;0.51;100.00
24825;BME280;12910;57.690;11.974;2023-02-28T05:37:04;102184.91;;;0.52;100.00
24825;BME280;12910;57.690;11.974;2023-02-28T05:39:29;102175.28;;;0.48;100.00
24825;BME280;12910;57.690;11.974;2023-02-28T05:41:55;102177.31;;;0.52;100.00
24825;BME280;12910;57.690;11.974;2023-02-28T05:44:20;102166.44;;;0.53;100.00
24825;BME280;12910;57.690;11.974;2023-02-28T05:46:45;102165.97;;;0.57;100.00
24825;BME280;12910;57.690;11.974;2023-02-28T05:49:11;102165.97;;;0.57;100.00
24825;BME280;12910;57.690;11.974;2023-02-28T05:51:36;102167.72;;;0.58;100.00
24825;BME280;12910;57.690;11.974;2023-02-28T05:54:05;102158.88;;;0.64;100.00
24825;BME280;12910;57.690;11.974;2023-02-28T05:56:31;102167.97;;;0.72;100.00
24825;BME280;12910;57.690;11.974;2023-02-28T05:58:56;102170.72;;;0.75;100.00
24825;BME280;12910;57.690;11.974;2023-02-28T06:01:32;102166.69;;;0.77;100.00
24825;BME280;12910;57.690;11.974;2023-02-28T06:03:59;102168.22;;;0.75;100.00
24825;BME280;12910;57.690;11.974;2023-02-28T06:06:25;102172.13;;;0.71;100.00
24825;BME280;12910;57.690;11.974;2023-02-28T06:08:50;102161.78;;;0.68;100.00
24825;BME280;12910;57.690;11.974;2023-02-28T06:11:16;102159.88;;;0.66;100.00
24825;BME280;12910;57.690;11.974;2023-02-28T06:13:41;102158.13;;;0.65;100.00
24825;BME280;12910;57.690;11.974;2023-02-28T06:16:08;102170.13;;;0.67;100.00
24825;BME280;12910;57.690;11.974;2023-02-28T06:18:35;102165.94;;;0.68;100.00
24825;BME280;12910;57.690;11.974;2023-02-28T06:21:00;102165.47;;;0.72;100.00
24825;BME280;12910;57.690;11.974;2023-02-28T06:23:26;102169.59;;;0.71;100.00
24825;BME280;12910;57.690;11.974;2023-02-28T06:25:51;102165.19;;;0.69;100.00
24825;BME280;12910;57.690;11.974;2023-02-28T06:28:18;102173.53;;;0.68;100.00
24825;BME280;12910;57.690;11.974;2023-02-28T06:30:43;102173.63;;;0.69;100.00
24825;BME280;12910;57.690;11.974;2023-02-28T06:33:08;102174.00;;;0.64;100.00
24825;BME280;12910;57.690;11.974;2023-02-28T06:35:34;102185.88;;;0.65;100.00
24825;BME280;12910;57.690;11.974;2023-02-28T06:37:59;102191.94;;;0.67;100.00
24825;BME280;12910;57.690;11.974;2023-02-28T06:40:25;102196.25;;;0.68;100.00
24825;BME280;12910;57.690;11.974;2023-02-28T06:42:50;102200.78;;;0.61;100.00
24825;BME280;12910;57.690;11.974;2023-02-28T06:45:15;102208.47;;;0.53;100.00
24825;BME280;12910;57.690;11.974;2023-02-28T06:47:41;102220.81;;;0.60;100.00
24825;BME280;12910;57.690;11.974;2023-02-28T06:50:09;102228.56;;;0.61;100.00
24825;BME280;12910;57.690;11.974;2023-02-28T06:52:35;102230.69;;;0.57;100.00
24825;BME280;12910;57.690;11.974;2023-02-28T06:55:05;102233.44;;;0.60;100.00
24825;BME280;12910;57.690;11.974;2023-02-28T06:57:31;102222.97;;;0.66;100.00
24825;BME280;12910;57.690;11.974;2023-02-28T07:00:01;102228.66;;;0.63;100.00
24825;BME280;12910;57.690;11.974;2023-02-28T07:02:28;102230.56;;;0.66;100.00
24825;BME280;12910;57.690;11.974;2023-02-28T07:04:53;102230.56;;;0.66;100.00
24825;BME280;12910;57.690;11.974;2023-02-28T07:07:19;102232.59;;;0.70;100.00
24825;BME280;12910;57.690;11.974;2023-02-28T07:09:44;102232.69;;;0.71;100.00
24825;BME280;12910;57.690;11.974;2023-02-28T07:12:10;102246.06;;;0.81;100.00
24825;BME280;12910;57.690;11.974;2023-02-28T07:14:36;102238.88;;;0.85;100.00
24825;BME280;12910;57.690;11.974;2023-02-28T07:17:01;102225.63;;;0.77;100.00
24825;BME280;12910;57.690;11.974;2023-02-28T07:19:27;102254.28;;;0.88;100.00
24825;BME280;12910;57.690;11.974;2023-02-28T07:21:53;102250.84;;;0.88;100.00
24825;BME280;12910;57.690;11.974;2023-02-28T07:24:18;102259.34;;;0.88;100.00
24825;BME280;12910;57.690;11.974;2023-02-28T07:26:44;102269.44;;;0.88;100.00
24825;BME280;12910;57.690;11.974;2023-02-28T07:29:09;102254.66;;;0.83;100.00
24825;BME280;12910;57.690;11.974;2023-02-28T07:31:35;102271.97;;;0.88;100.00
24825;BME280;12910;57.690;11.974;2023-02-28T07:34:00;102295.31;;;0.86;100.00
24825;BME280;12910;57.690;11.974;2023-02-28T07:36:26;102294.69;;;0.88;100.00
24825;BME280;12910;57.690;11.974;2023-02-28T07:38:51;102289.00;;;0.91;100.00
24825;BME280;12910;57.690;11.974;2023-02-28T07:41:19;102299.84;;;0.80;100.00
24825;BME280;12910;57.690;11.974;2023-02-28T07:43:45;102304.50;;;0.85;100.00
24825;BME280;12910;57.690;11.974;2023-02-28T07:46:13;102308.16;;;0.89;100.00
24825;BME280;12910;57.690;11.974;2023-02-28T07:48:43;102317.03;;;1.04;100.00
24825;BME280;12910;57.690;11.974;2023-02-28T07:51:09;102323.22;;;1.08;100.00
24825;BME280;12910;57.690;11.974;2023-02-28T07:53:34;102323.59;;;1.13;100.00
24825;BME280;12910;57.690;11.974;2023-02-28T07:56:01;102327.88;;;1.14;100.00
24825;BME280;12910;57.690;11.974;2023-02-28T07:58:28;102332.31;;;1.16;100.00
24825;BME280;12910;57.690;11.974;2023-02-28T08:00:54;102331.66;;;1.19;100.00
24825;BME280;12910;57.690;11.974;2023-02-28T08:03:21;102328.88;;;1.26;100.00
24825;BME280;12910;57.690;11.974;2023-02-28T08:05:46;102330.03;;;1.30;100.00
24825;BME280;12910;57.690;11.974;2023-02-28T08:08:13;102334.56;;;1.34;100.00
24825;BME280;12910;57.690;11.974;2023-02-28T08:10:39;102341.50;;;1.36;100.00
24825;BME280;12910;57.690;11.974;2023-02-28T08:13:04;102340.75;;;1.27;100.00
24825;BME280;12910;57.690;11.974;2023-02-28T08:15:30;102344.81;;;1.25;100.00
24825;BME280;12910;57.690;11.974;2023-02-28T08:17:55;102343.16;;;1.26;100.00
24825;BME280;12910;57.690;11.974;2023-02-28T08:20:22;102347.44;;;1.27;100.00
24825;BME280;12910;57.690;11.974;2023-02-28T08:22:48;102349.97;;;1.27;100.00
24825;BME280;12910;57.690;11.974;2023-02-28T08:25:13;102355.03;;;1.37;100.00
24825;BME280;12910;57.690;11.974;2023-02-28T08:27:39;102356.53;;;1.45;100.00
24825;BME280;12910;57.690;11.974;2023-02-28T08:30:05;102362.06;;;1.51;100.00
24825;BME280;12910;57.690;11.974;2023-02-28T08:32:32;102346.16;;;1.52;100.00
24825;BME280;12910;57.690;11.974;2023-02-28T08:34:58;102335.66;;;1.58;100.00
24825;BME280;12910;57.690;11.974;2023-02-28T08:37:24;102349.03;;;1.67;100.00
24825;BME280;12910;57.690;11.974;2023-02-28T08:39:50;102342.63;;;1.50;100.00
24825;BME280;12910;57.690;11.974;2023-02-28T08:42:15;102343.63;;;1.52;100.00
24825;BME280;12910;57.690;11.974;2023-02-28T08:44:41;102362.59;;;1.58;100.00
24825;BME280;12910;57.690;11.974;2023-02-28T08:47:06;102362.97;;;1.62;100.00
24825;BME280;12910;57.690;11.974;2023-02-28T08:49:32;102364.84;;;1.65;100.00
24825;BME280;12910;57.690;11.974;2023-02-28T08:51:58;102372.31;;;1.63;100.00
24825;BME280;12910;57.690;11.974;2023-02-28T08:54:24;102362.06;;;1.62;100.00
24825;BME280;12910;57.690;11.974;2023-02-28T08:56:49;102361.31;;;1.63;100.00
24825;BME280;12910;57.690;11.974;2023-02-28T08:59:15;102370.16;;;1.68;100.00
24825;BME280;12910;57.690;11.974;2023-02-28T09:01:41;102372.91;;;1.71;100.00
24825;BME280;12910;57.690;11.974;2023-02-28T09:04:08;102375.44;;;1.71;100.00
24825;BME280;12910;57.690;11.974;2023-02-28T09:06:35;102368.63;;;1.70;100.00
24825;BME280;12910;57.690;11.974;2023-02-28T09:09:01;102372.69;;;1.68;100.00
24825;BME280;12910;57.690;11.974;2023-02-28T09:11:27;102364.31;;;1.69;100.00
24825;BME280;12910;57.690;11.974;2023-02-28T09:13:53;102374.19;;;1.76;100.00
24825;BME280;12910;57.690;11.974;2023-02-28T09:16:20;102388.44;;;1.86;100.00
24825;BME280;12910;57.690;11.974;2023-02-28T09:18:46;102383.91;;;1.92;100.00
24825;BME280;12910;57.690;11.974;2023-02-28T09:21:14;102394.59;;;2.00;100.00
24825;BME280;12910;57.690;11.974;2023-02-28T09:23:41;102387.78;;;1.99;100.00
24825;BME280;12910;57.690;11.974;2023-02-28T09:26:06;102399.53;;;2.09;100.00
24825;BME280;12910;57.690;11.974;2023-02-28T09:28:33;102395.47;;;2.11;100.00
24825;BME280;12910;57.690;11.974;2023-02-28T09:30:59;102401.88;;;2.17;100.00
24825;BME280;12910;57.690;11.974;2023-02-28T09:33:25;102408.22;;;2.23;100.00
24825;BME280;12910;57.690;11.974;2023-02-28T09:35:58;102402.59;;;2.27;100.00
24825;BME280;12910;57.690;11.974;2023-02-28T09:38:23;102402.75;;;2.28;100.00
24825;BME280;12910;57.690;11.974;2023-02-28T09:40:54;102402.34;;;2.34;100.00
24825;BME280;12910;57.690;11.974;2023-02-28T09:43:23;102397.28;;;2.34;100.00
24825;BME280;12910;57.690;11.974;2023-02-28T09:46:02;102399.28;;;2.38;100.00
24825;BME280;12910;57.690;11.974;2023-02-28T09:48:34;102379.97;;;2.28;100.00
24825;BME280;12910;57.690;11.974;2023-02-28T09:54:21;102390.81;;;2.38;100.00
24825;BME280;12910;57.690;11.974;2023-02-28T09:56:58;102383.59;;;2.42;100.00
24825;BME280;12910;57.690;11.974;2023-02-28T10:05:41;102388.34;;;2.49;100.00
24825;BME280;12910;57.690;11.974;2023-02-28T10:08:16;102398.72;;;2.53;100.00
24825;BME280;12910;57.690;11.974;2023-02-28T10:10:49;102396.19;;;2.53;100.00
24825;BME280;12910;57.690;11.974;2023-02-28T10:13:24;102388.50;;;2.41;100.00
24825;BME280;12910;57.690;11.974;2023-02-28T10:15:58;102403.66;;;2.51;100.00
24825;BME280;12910;57.690;11.974;2023-02-28T10:18:28;102407.84;;;2.51;100.00
24825;BME280;12910;57.690;11.974;2023-02-28T10:20:56;102404.91;;;2.56;100.00
24825;BME280;12910;57.690;11.974;2023-02-28T10:23:35;102408.25;;;2.67;100.00
24825;BME280;12910;57.690;11.974;2023-02-28T10:26:11;102403.34;;;2.69;100.00
24825;BME280;12910;57.690;11.974;2023-02-28T10:28:38;102402.53;;;2.70;100.00
24825;BME280;12910;57.690;11.974;2023-02-28T10:31:04;102395.56;;;2.77;100.00
24825;BME280;12910;57.690;11.974;2023-02-28T10:33:33;102404.66;;;2.75;100.00
24825;BME280;12910;57.690;11.974;2023-02-28T10:35:59;102406.34;;;2.75;100.00
24825;BME280;12910;57.690;11.974;2023-02-28T10:38:33;102410.22;;;2.82;100.00
24825;BME280;12910;57.690;11.974;2023-02-28T10:43:31;102415.16;;;2.80;100.00
24825;BME280;12910;57.690;11.974;2023-02-28T10:48:36;102411.16;;;2.72;100.00
24825;BME280;12910;57.690;11.974;2023-02-28T10:51:03;102400.09;;;2.59;100.00
24825;BME280;12910;57.690;11.974;2023-02-28T10:53:32;102416.22;;;2.72;100.00
24825;BME280;12910;57.690;11.974;2023-02-28T11:01:15;102406.78;;;2.81;100.00
24825;BME280;12910;57.690;11.974;2023-02-28T11:03:41;102418.94;;;2.85;100.00
24825;BME280;12910;57.690;11.974;2023-02-28T11:06:33;102411.59;;;2.88;100.00
24825;BME280;12910;57.690;11.974;2023-02-28T11:09:18;102413.69;;;2.94;100.00
24825;BME280;12910;57.690;11.974;2023-02-28T11:11:47;102416.69;;;3.00;100.00
24825;BME280;12910;57.690;11.974;2023-02-28T11:14:22;102414.50;;;3.05;100.00
24825;BME280;12910;57.690;11.974;2023-02-28T11:16:49;102418.16;;;3.08;100.00
24825;BME280;12910;57.690;11.974;2023-02-28T11:19:29;102414.97;;;3.11;100.00
24825;BME280;12910;57.690;11.974;2023-02-28T11:22:03;102406.72;;;3.14;100.00
24825;BME280;12910;57.690;11.974;2023-02-28T11:27:01;102384.69;;;3.13;100.00
24825;BME280;12910;57.690;11.974;2023-02-28T11:29:32;102390.66;;;3.25;100.00
24825;BME280;12910;57.690;11.974;2023-02-28T11:32:18;102379.44;;;3.33;100.00
24825;BME280;12910;57.690;11.974;2023-02-28T11:34:46;102377.16;;;3.36;100.00
24825;BME280;12910;57.690;11.974;2023-02-28T11:37:18;102375.72;;;3.40;100.00
24825;BME280;12910;57.690;11.974;2023-02-28T11:39:45;102365.81;;;3.43;100.00
24825;BME280;12910;57.690;11.974;2023-02-28T11:47:35;102373.09;;;3.62;100.00
24825;BME280;12910;57.690;11.974;2023-02-28T11:55:26;102367.16;;;3.73;100.00
24825;BME280;12910;57.690;11.974;2023-02-28T12:01:25;102350.63;;;3.79;100.00
24825;BME280;12910;57.690;11.974;2023-02-28T12:07:03;102350.84;;;3.94;100.00
24825;BME280;12910;57.690;11.974;2023-02-28T12:12:16;102334.63;;;4.03;100.00
24825;BME280;12910;57.690;11.974;2023-02-28T12:17:59;102323.66;;;4.16;100.00
24825;BME280;12910;57.690;11.974;2023-02-28T12:20:54;102310.63;;;4.24;100.00
24825;BME280;12910;57.690;11.974;2023-02-28T12:28:38;102294.03;;;4.41;100.00
24825;BME280;12910;57.690;11.974;2023-02-28T12:31:18;102282.53;;;4.46;100.00
24825;BME280;12910;57.690;11.974;2023-02-28T12:33:56;102276.88;;;4.50;100.00
24825;BME280;12910;57.690;11.974;2023-02-28T12:36:24;102260.09;;;4.52;100.00
24825;BME280;12910;57.690;11.974;2023-02-28T12:39:16;102251.25;;;4.59;100.00
24825;BME280;12910;57.690;11.974;2023-02-28T12:42:10;102247.94;;;4.73;100.00
24825;BME280;12910;57.690;11.974;2023-02-28T12:44:59;102231.53;;;4.81;100.00
24825;BME280;12910;57.690;11.974;2023-02-28T12:47:26;102226.28;;;4.78;100.00
24825;BME280;12910;57.690;11.974;2023-02-28T12:49:54;102218.97;;;4.83;100.00
24825;BME280;12910;57.690;11.974;2023-02-28T12:52:42;102217.03;;;4.92;100.00
24825;BME280;12910;57.690;11.974;2023-02-28T12:55:23;102208.22;;;5.01;100.00
24825;BME280;12910;57.690;11.974;2023-02-28T12:58:08;102209.22;;;5.16;100.00
24825;BME280;12910;57.690;11.974;2023-02-28T13:00:52;102188.88;;;5.16;100.00
24825;BME280;12910;57.690;11.974;2023-02-28T13:08:59;102165.00;;;5.27;100.00
24825;BME280;12910;57.690;11.974;2023-02-28T13:11:39;102169.69;;;5.35;100.00
24825;BME280;12910;57.690;11.974;2023-02-28T13:14:16;102181.25;;;5.43;100.00
24825;BME280;12910;57.690;11.974;2023-02-28T13:19:20;102166.44;;;5.51;100.00
24825;BME280;12910;57.690;11.974;2023-02-28T13:21:49;102167.72;;;5.57;100.00
24825;BME280;12910;57.690;11.974;2023-02-28T13:29:30;102148.53;;;5.63;100.00
24825;BME280;12910;57.690;11.974;2023-02-28T13:42:33;102137.34;;;5.74;100.00
24825;BME280;12910;57.690;11.974;2023-02-28T13:48:03;102144.16;;;5.88;100.00
24825;BME280;12910;57.690;11.974;2023-02-28T13:50:30;102131.50;;;5.90;100.00
24825;BME280;12910;57.690;11.974;2023-02-28T14:06:55;102130.34;;;6.13;100.00
24825;BME280;12910;57.690;11.974;2023-02-28T14:09:29;102124.81;;;6.20;100.00
24825;BME280;12910;57.690;11.974;2023-02-28T14:11:56;102120.56;;;6.19;100.00
24825;BME280;12910;57.690;11.974;2023-02-28T14:17:00;102112.44;;;6.12;100.00
24825;BME280;12910;57.690;11.974;2023-02-28T14:19:29;102115.88;;;6.12;100.00
24825;BME280;12910;57.690;11.974;2023-02-28T14:24:34;102118.09;;;6.21;100.00
24825;BME280;12910;57.690;11.974;2023-02-28T14:33:35;102119.91;;;6.23;100.00
24825;BME280;12910;57.690;11.974;2023-02-28T14:36:18;102112.41;;;6.25;100.00
24825;BME280;12910;57.690;11.974;2023-02-28T14:39:05;102109.28;;;6.16;100.00
24825;BME280;12910;57.690;11.974;2023-02-28T14:41:38;102114.09;;;6.11;100.00
24825;BME280;12910;57.690;11.974;2023-02-28T14:44:26;102094.03;;;6.01;100.00
24825;BME280;12910;57.690;11.974;2023-02-28T14:46:57;102108.06;;;6.09;100.00
24825;BME280;12910;57.690;11.974;2023-02-28T14:49:32;102112.19;;;6.07;100.00
24825;BME280;12910;57.690;11.974;2023-02-28T14:54:30;102111.34;;;5.93;100.00
24825;BME280;12910;57.690;11.974;2023-02-28T14:56:55;102097.00;;;5.80;100.00
24825;BME280;12910;57.690;11.974;2023-02-28T14:59:25;102120.09;;;5.98;100.00
24825;BME280;12910;57.690;11.974;2023-02-28T15:01:51;102116.09;;;6.02;100.00
24825;BME280;12910;57.690;11.974;2023-02-28T15:04:26;102118.19;;;5.94;100.00